createdAt,value
2022-08-20T04:00:27.512Z,65.29
2022-08-20T04:01:45.674Z,65.69
2022-08-20T04:02:28.433Z,64.89
2022-08-20T04:03:27.447Z,65.49
2022-08-20T04:04:27.417Z,66.19
2022-08-20T04:05:28.330Z,66.82
2022-08-20T04:06:27.394Z,66.82
2022-08-20T04:07:27.378Z,66.22
2022-08-20T04:08:27.378Z,66.72
2022-08-20T04:09:27.364Z,66.42
2022-08-20T04:10:27.343Z,66.42
2022-08-20T04:11:32.359Z,66.22
2022-08-20T04:12:27.319Z,66.72
2022-08-20T04:13:27.318Z,66.82
2022-08-20T04:14:27.300Z,67.13
2022-08-20T04:15:27.286Z,67.32
2022-08-20T04:16:27.277Z,67.02
2022-08-20T04:17:27.281Z,67.16
2022-08-20T04:18:27.265Z,67.13
2022-08-20T04:19:31.208Z,66.93
2022-08-20T04:20:28.268Z,67.16
2022-08-20T04:21:29.684Z,67.16
2022-08-20T04:22:33.229Z,66.82
2022-08-20T04:23:27.208Z,67.36
2022-08-20T04:24:32.228Z,67.55
2022-08-20T04:25:28.175Z,67.55
2022-08-20T04:26:27.174Z,67.55
2022-08-20T04:27:27.184Z,67.36
2022-08-20T04:28:27.162Z,67.25
2022-08-20T04:29:32.462Z,67.25
2022-08-20T04:30:28.118Z,67.66
2022-08-20T04:31:27.106Z,67.86
2022-08-20T04:32:27.094Z,67.36
2022-08-20T04:33:33.809Z,67.25
2022-08-20T04:34:27.078Z,67.25
2022-08-20T04:35:27.060Z,67.36
2022-08-20T04:36:27.048Z,67.86
2022-08-20T04:37:27.036Z,68.36
2022-08-20T04:38:27.037Z,68.05
2022-08-20T04:39:28.012Z,68.55
2022-08-20T04:40:27.003Z,68.36
2022-08-20T04:41:26.991Z,68.16
2022-08-20T04:42:26.986Z,67.66
2022-08-20T04:43:26.979Z,67.86
2022-08-20T04:44:31.988Z,68.55
2022-08-20T04:45:26.946Z,68.16
2022-08-20T04:46:26.935Z,68.46
2022-08-20T04:47:34.663Z,68.26
2022-08-20T04:48:27.946Z,68.26
2022-08-20T04:49:26.906Z,68.26
2022-08-20T04:50:26.892Z,68.62
2022-08-20T04:51:27.108Z,68.43
2022-08-20T04:52:26.868Z,68.62
2022-08-20T04:53:26.868Z,68.36
2022-08-20T04:54:26.847Z,68.43
2022-08-20T04:55:31.871Z,69.02
2022-08-20T04:56:26.848Z,68.52
2022-08-20T04:57:26.812Z,68.82
2022-08-20T04:58:26.813Z,69.02
2022-08-20T04:59:26.799Z,69.43
2022-08-20T05:00:26.792Z,68.52
2022-08-20T05:01:26.823Z,68.89
2022-08-20T05:02:26.767Z,69.19
2022-08-20T05:03:26.744Z,68.89
2022-08-20T05:04:26.743Z,69.09
2022-08-20T05:05:26.718Z,68.89
2022-08-20T05:06:31.742Z,68.79
2022-08-20T05:07:26.703Z,68.86
2022-08-20T05:08:26.686Z,69.26
2022-08-20T05:09:26.686Z,69.36
2022-08-20T05:10:26.663Z,69.16
2022-08-20T05:11:35.254Z,68.96
2022-08-20T05:12:27.643Z,69.26
2022-08-20T05:13:27.502Z,69.26
2022-08-20T05:14:26.644Z,69.39
2022-08-20T05:15:26.613Z,69.89
2022-08-20T05:16:26.596Z,70.89
2022-08-20T05:17:31.620Z,71.29
2022-08-20T05:18:26.574Z,71.09
2022-08-20T05:19:26.573Z,71.03
2022-08-20T05:20:26.550Z,71.33
2022-08-20T05:21:26.539Z,71.99
2022-08-20T05:22:26.530Z,72.53
2022-08-20T05:23:26.531Z,72.53
2022-08-20T05:24:26.505Z,72.72
2022-08-20T05:25:26.522Z,72.33
2022-08-20T05:26:26.485Z,71.99
2022-08-20T05:27:26.471Z,72.13
2022-08-20T05:28:31.493Z,71.83
2022-08-20T05:29:26.450Z,71.92
2022-08-20T05:30:26.442Z,71.23
2022-08-20T05:31:31.285Z,71.53
2022-08-20T05:32:27.418Z,72.96
2022-08-20T05:33:26.420Z,71.83
2022-08-20T05:34:26.399Z,72.13
2022-08-20T05:35:26.380Z,71.42
2022-08-20T05:36:26.374Z,71.33
2022-08-20T05:37:26.358Z,71.03
2022-08-20T05:38:26.348Z,70.92
2022-08-20T05:39:35.389Z,71.09
2022-08-20T05:40:27.396Z,71.03
2022-08-20T05:41:29.143Z,71.19
2022-08-20T05:42:26.304Z,71.06
2022-08-20T05:43:26.294Z,71.16
2022-08-20T05:44:26.290Z,70.56
2022-08-20T05:45:26.268Z,70.32
2022-08-20T05:46:26.259Z,70.42
2022-08-20T05:47:26.244Z,70.42
2022-08-20T05:48:26.247Z,69.53
2022-08-20T05:49:26.221Z,69.73
2022-08-20T05:50:31.244Z,69.69
2022-08-20T05:51:26.200Z,69.79
2022-08-20T05:52:26.192Z,69.09
2022-08-20T05:53:26.270Z,69.49
2022-08-20T05:54:26.167Z,69.69
2022-08-20T05:55:26.154Z,69.59
2022-08-20T05:56:26.988Z,69.09
2022-08-20T05:57:26.138Z,69.29
2022-08-20T05:58:26.123Z,69.39
2022-08-20T05:59:26.118Z,69.06
2022-08-20T06:00:26.099Z,68.66
2022-08-20T06:01:31.188Z,68.66
2022-08-20T06:02:26.086Z,68.66
2022-08-20T06:03:26.064Z,68.86
2022-08-20T06:04:26.066Z,69.26
2022-08-20T06:05:26.043Z,68.93
2022-08-20T06:06:44.259Z,68.83
2022-08-20T06:07:27.050Z,69.16
2022-08-20T06:08:26.035Z,68.73
2022-08-20T06:09:31.290Z,69.13
2022-08-20T06:10:26.986Z,68.83
2022-08-20T06:11:25.975Z,68.86
2022-08-20T06:12:30.988Z,68.76
2022-08-20T06:13:25.953Z,68.43
2022-08-20T06:14:25.953Z,68.23
2022-08-20T06:15:25.935Z,68.53
2022-08-20T06:16:28.946Z,68.43
2022-08-20T06:17:25.919Z,68.63
2022-08-20T06:18:28.382Z,68.33
2022-08-20T06:19:26.364Z,68.60
2022-08-20T06:20:25.884Z,68.43
2022-08-20T06:21:25.883Z,68.60
2022-08-20T06:22:26.441Z,68.19
2022-08-20T06:23:56.768Z,68.30
2022-08-20T06:24:26.844Z,68.10
2022-08-20T06:25:25.824Z,67.70
2022-08-20T06:26:29.968Z,68.10
2022-08-20T06:27:26.797Z,68.10
2022-08-20T06:28:25.792Z,68.30
2022-08-20T06:29:25.794Z,68.30
2022-08-20T06:30:25.765Z,68.40
2022-08-20T06:31:25.753Z,68.30
2022-08-20T06:32:32.197Z,68.30
2022-08-20T06:33:26.731Z,68.40
2022-08-20T06:34:30.901Z,68.73
2022-08-20T06:35:25.713Z,69.09
2022-08-20T06:36:25.736Z,68.63
2022-08-20T06:37:27.653Z,68.93
2022-08-20T06:38:26.678Z,69.53
2022-08-20T06:39:25.679Z,69.76
2022-08-20T06:40:25.658Z,69.56
2022-08-20T06:41:35.705Z,70.56
2022-08-20T06:42:26.655Z,70.76
2022-08-20T06:43:25.630Z,70.95
2022-08-20T06:44:25.651Z,71.19
2022-08-20T06:45:30.625Z,70.76
2022-08-20T06:46:25.601Z,71.69
2022-08-20T06:47:25.589Z,71.19
2022-08-20T06:48:25.571Z,72.59
2022-08-20T06:49:25.620Z,72.59
2022-08-20T06:50:25.548Z,72.89
2022-08-20T06:51:25.557Z,72.78
2022-08-20T06:52:27.118Z,72.78
2022-08-20T06:53:26.511Z,73.28
2022-08-20T06:54:28.636Z,73.32
2022-08-20T06:55:25.538Z,73.12
2022-08-20T06:56:30.529Z,73.02
2022-08-20T06:57:25.469Z,72.72
2022-08-20T06:58:36.989Z,73.19
2022-08-20T06:59:26.456Z,73.12
2022-08-20T07:00:25.496Z,72.89
2022-08-20T07:01:25.509Z,73.09
2022-08-20T07:02:30.042Z,72.59
2022-08-20T07:03:25.410Z,72.89
2022-08-20T07:04:25.408Z,72.89
2022-08-20T07:05:25.381Z,73.09
2022-08-20T07:06:25.825Z,72.78
2022-08-20T07:07:30.411Z,72.99
2022-08-20T07:08:25.355Z,73.15
2022-08-20T07:09:25.338Z,72.99
2022-08-20T07:10:25.399Z,73.09
2022-08-20T07:11:28.235Z,73.19
2022-08-20T07:12:25.305Z,73.58
2022-08-20T07:13:25.534Z,73.88
2022-08-20T07:14:25.285Z,73.58
2022-08-20T07:15:25.523Z,73.69
2022-08-20T07:16:25.268Z,73.49
2022-08-20T07:17:25.250Z,73.49
2022-08-20T07:18:30.263Z,73.19
2022-08-20T07:19:25.241Z,73.49
2022-08-20T07:20:25.230Z,73.28
2022-08-20T07:21:25.204Z,73.28
2022-08-20T07:22:25.194Z,74.08
2022-08-20T07:23:25.186Z,74.68
2022-08-20T07:24:25.176Z,74.52
2022-08-20T07:25:26.215Z,74.52
2022-08-20T07:26:25.150Z,74.52
2022-08-20T07:27:25.137Z,74.52
2022-08-20T07:28:25.127Z,74.52
2022-08-20T07:29:30.157Z,74.92
2022-08-20T07:30:25.121Z,74.82
2022-08-20T07:31:25.113Z,74.79
2022-08-20T07:32:26.179Z,74.68
2022-08-20T07:33:25.073Z,74.29
2022-08-20T07:34:25.062Z,73.79
2022-08-20T07:35:25.064Z,73.69
2022-08-20T07:36:25.044Z,73.28
2022-08-20T07:37:25.028Z,73.79
2022-08-20T07:38:25.017Z,74.19
2022-08-20T07:39:25.007Z,73.58
2022-08-20T07:40:30.089Z,73.58
2022-08-20T07:41:24.982Z,74.68
2022-08-20T07:42:24.972Z,74.52
2022-08-20T07:43:24.962Z,74.22
2022-08-20T07:44:29.180Z,75.32
2022-08-20T07:45:25.951Z,75.22
2022-08-20T07:46:24.932Z,74.62
2022-08-20T07:47:25.960Z,74.42
2022-08-20T07:48:31.489Z,73.92
2022-08-20T07:49:25.907Z,73.92
2022-08-20T07:50:24.886Z,73.28
2022-08-20T07:51:29.911Z,72.72
2022-08-20T07:52:24.864Z,72.78
2022-08-20T07:53:24.849Z,72.59
2022-08-20T07:54:24.840Z,71.99
2022-08-20T07:55:24.829Z,71.19
2022-08-20T07:56:24.906Z,70.79
2022-08-20T07:57:24.805Z,70.99
2022-08-20T07:58:27.592Z,71.69
2022-08-20T07:59:25.784Z,71.39
2022-08-20T08:00:24.773Z,71.19
2022-08-20T08:01:24.843Z,72.13
2022-08-20T08:02:29.772Z,71.29
2022-08-20T08:03:39.856Z,71.59
2022-08-20T08:04:25.734Z,70.89
2022-08-20T08:05:25.675Z,71.19
2022-08-20T08:06:28.994Z,71.79
2022-08-20T08:07:25.823Z,70.99
2022-08-20T08:08:24.685Z,70.86
2022-08-20T08:09:24.675Z,70.86
2022-08-20T08:10:24.670Z,70.56
2022-08-20T08:11:24.662Z,70.56
2022-08-20T08:12:24.649Z,70.36
2022-08-20T08:13:29.651Z,69.32
2022-08-20T08:14:24.620Z,69.53
2022-08-20T08:15:24.608Z,69.53
2022-08-20T08:16:24.688Z,69.53
2022-08-20T08:17:24.590Z,69.73
2022-08-20T08:18:27.726Z,69.02
2022-08-20T08:19:25.563Z,69.62
2022-08-20T08:20:24.555Z,68.99
2022-08-20T08:21:24.554Z,69.32
2022-08-20T08:22:24.531Z,68.99
2022-08-20T08:23:31.952Z,69.20
2022-08-20T08:24:30.526Z,69.09
2022-08-20T08:25:24.497Z,68.99
2022-08-20T08:26:24.494Z,69.09
2022-08-20T08:27:24.473Z,68.40
2022-08-20T08:28:24.461Z,68.90
2022-08-20T08:29:24.453Z,68.79
2022-08-20T08:30:24.456Z,68.76
2022-08-20T08:31:24.428Z,68.96
2022-08-20T08:32:24.415Z,68.60
2022-08-20T08:33:24.410Z,68.66
2022-08-20T08:34:24.392Z,68.37
2022-08-20T08:35:29.429Z,68.56
2022-08-20T08:36:24.369Z,68.46
2022-08-20T08:37:26.912Z,68.37
2022-08-20T08:38:24.349Z,68.46
2022-08-20T08:39:24.337Z,68.46
2022-08-20T08:40:25.421Z,68.56
2022-08-20T08:41:24.330Z,68.07
2022-08-20T08:42:24.300Z,68.03
2022-08-20T08:43:24.292Z,68.03
2022-08-20T08:44:24.280Z,68.43
2022-08-20T08:45:24.323Z,68.53
2022-08-20T08:46:29.290Z,68.23
2022-08-20T08:47:24.246Z,68.33
2022-08-20T08:48:24.236Z,68.46
2022-08-20T08:49:24.238Z,68.46
2022-08-20T08:50:49.889Z,68.13
2022-08-20T08:51:25.211Z,68.23
2022-08-20T08:52:24.537Z,68.43
2022-08-20T08:53:24.177Z,67.73
2022-08-20T08:54:24.168Z,67.03
2022-08-20T08:55:24.154Z,67.00
2022-08-20T08:56:24.158Z,67.40
2022-08-20T08:57:29.165Z,66.80
2022-08-20T08:58:24.126Z,66.38
2022-08-20T08:59:24.109Z,65.78
2022-08-20T09:00:24.103Z,65.98
2022-08-20T09:01:53.780Z,65.98
2022-08-20T09:02:25.109Z,65.98
2022-08-20T09:03:24.066Z,66.27
2022-08-20T09:04:24.053Z,65.55
2022-08-20T09:05:24.048Z,65.64
2022-08-20T09:06:24.041Z,65.58
2022-08-20T09:07:24.020Z,65.84
2022-08-20T09:08:29.059Z,65.25
2022-08-20T09:09:24.001Z,65.35
2022-08-20T09:10:23.985Z,65.45
2022-08-20T09:11:23.996Z,65.55
2022-08-20T09:12:23.964Z,65.81
2022-08-20T09:13:23.953Z,65.55
2022-08-20T09:14:23.942Z,65.15
2022-08-20T09:15:23.935Z,65.05
2022-08-20T09:16:23.940Z,64.92
2022-08-20T09:17:23.924Z,65.02
2022-08-20T09:18:23.927Z,64.92
2022-08-20T09:19:28.913Z,65.22
2022-08-20T09:20:27.049Z,64.82
2022-08-20T09:21:23.880Z,64.82
2022-08-20T09:22:23.852Z,65.12
2022-08-20T09:23:23.843Z,64.82
2022-08-20T09:24:23.830Z,63.92
2022-08-20T09:25:23.822Z,64.42
2022-08-20T09:26:23.821Z,64.12
2022-08-20T09:27:24.806Z,64.42
2022-08-20T09:28:23.783Z,64.42
2022-08-20T09:29:23.776Z,63.73
2022-08-20T09:30:28.809Z,63.43
2022-08-20T09:31:23.768Z,63.13
2022-08-20T09:32:23.747Z,63.43
2022-08-20T09:33:23.733Z,63.33
2022-08-20T09:34:23.735Z,63.53
2022-08-20T09:35:23.713Z,63.13
2022-08-20T09:36:29.096Z,62.93
2022-08-20T09:37:24.684Z,63.03
2022-08-20T09:38:23.672Z,63.13
2022-08-20T09:39:23.666Z,62.53
2022-08-20T09:40:23.716Z,62.34
2022-08-20T09:41:28.681Z,62.73
2022-08-20T09:42:23.878Z,62.30
2022-08-20T09:43:23.619Z,62.21
2022-08-20T09:44:23.611Z,62.40
2022-08-20T09:45:23.600Z,62.21
2022-08-20T09:46:27.204Z,61.71
2022-08-20T09:47:23.601Z,62.30
2022-08-20T09:48:31.885Z,62.04
2022-08-20T09:49:24.556Z,61.83
2022-08-20T09:50:24.176Z,62.43
2022-08-20T09:51:23.535Z,62.34
2022-08-20T09:52:28.771Z,62.63
2022-08-20T09:53:23.512Z,63.53
2022-08-20T09:54:23.510Z,64.92
2022-08-20T09:55:23.484Z,66.35
2022-08-20T09:56:23.470Z,67.24
2022-08-20T09:57:23.477Z,67.24
2022-08-20T09:58:23.450Z,67.14
2022-08-20T09:59:23.449Z,67.24
2022-08-20T10:00:23.523Z,66.97
2022-08-20T10:01:23.492Z,67.04
2022-08-20T10:02:23.416Z,67.07
2022-08-20T10:03:28.417Z,68.16
2022-08-20T10:04:23.404Z,68.37
2022-08-20T10:05:23.379Z,68.27
2022-08-20T10:06:23.361Z,68.37
2022-08-20T10:07:23.372Z,67.54
2022-08-20T10:08:23.402Z,67.04
2022-08-20T10:09:23.330Z,66.97
2022-08-20T10:10:23.337Z,68.16
2022-08-20T10:11:23.304Z,68.40
2022-08-20T10:12:23.337Z,68.30
2022-08-20T10:13:23.298Z,68.33
2022-08-20T10:14:28.317Z,68.43
2022-08-20T10:15:23.262Z,68.43
2022-08-20T10:16:23.253Z,68.93
2022-08-20T10:17:23.253Z,69.13
2022-08-20T10:18:23.225Z,68.43
2022-08-20T10:19:23.214Z,67.70
2022-08-20T10:20:23.202Z,67.90
2022-08-20T10:21:23.195Z,67.27
2022-08-20T10:22:23.194Z,66.77
2022-08-20T10:23:23.170Z,66.54
2022-08-20T10:24:23.160Z,66.05
2022-08-20T10:25:28.170Z,66.35
2022-08-20T10:26:23.139Z,66.05
2022-08-20T10:27:23.136Z,65.94
2022-08-20T10:28:23.120Z,65.35
2022-08-20T10:29:23.102Z,66.21
2022-08-20T10:30:23.091Z,65.22
2022-08-20T10:31:23.725Z,65.48
2022-08-20T10:32:24.228Z,65.19
2022-08-20T10:33:23.721Z,65.28
2022-08-20T10:34:23.719Z,65.09
2022-08-20T10:35:23.724Z,65.06
2022-08-20T10:36:28.059Z,63.96
2022-08-20T10:37:23.026Z,63.76
2022-08-20T10:38:23.010Z,63.96
2022-08-20T10:39:22.992Z,65.06
2022-08-20T10:40:23.089Z,65.58
2022-08-20T10:41:22.968Z,66.51
2022-08-20T10:42:22.967Z,66.01
2022-08-20T10:43:22.948Z,66.81
2022-08-20T10:44:22.936Z,66.71
2022-08-20T10:45:22.942Z,67.00
2022-08-20T10:46:22.912Z,66.64
2022-08-20T10:47:27.951Z,66.11
2022-08-20T10:48:22.890Z,66.21
2022-08-20T10:49:22.879Z,65.81
2022-08-20T10:50:22.865Z,66.21
2022-08-20T10:51:22.859Z,65.42
2022-08-20T10:52:23.867Z,65.12
2022-08-20T10:53:22.835Z,64.59
2022-08-20T10:54:22.820Z,64.09
2022-08-20T10:55:22.814Z,64.39
2022-08-20T10:56:22.802Z,64.09
2022-08-20T10:57:22.802Z,64.79
2022-08-20T10:58:37.532Z,64.62
2022-08-20T10:59:23.767Z,65.12
2022-08-20T11:00:22.756Z,65.12
2022-08-20T11:01:31.593Z,65.12
2022-08-20T11:02:23.819Z,65.02
2022-08-20T11:03:22.724Z,64.12
2022-08-20T11:04:22.716Z,63.79
2022-08-20T11:05:22.702Z,63.60
2022-08-20T11:06:22.690Z,63.10
2022-08-20T11:07:22.693Z,64.39
2022-08-20T11:08:33.468Z,65.06
2022-08-20T11:09:28.683Z,64.36
2022-08-20T11:10:22.655Z,64.36
2022-08-20T11:11:22.632Z,64.76
2022-08-20T11:12:22.644Z,64.86
2022-08-20T11:13:22.611Z,64.86
2022-08-20T11:14:22.597Z,65.25
2022-08-20T11:15:22.588Z,64.46
2022-08-20T11:16:22.743Z,64.76
2022-08-20T11:17:22.588Z,64.06
2022-08-20T11:18:22.552Z,63.96
2022-08-20T11:19:22.546Z,63.07
2022-08-20T11:20:27.552Z,63.43
2022-08-20T11:21:22.524Z,63.64
2022-08-20T11:22:22.521Z,63.54
2022-08-20T11:23:22.520Z,57.98
2022-08-20T11:24:22.489Z,57.68
2022-08-20T11:25:22.477Z,59.76
2022-08-20T11:26:22.464Z,60.33
2022-08-20T11:27:22.457Z,59.34
2022-08-20T11:28:31.860Z,55.76
2022-08-20T11:29:23.434Z,54.75
2022-08-20T11:30:22.419Z,54.15
2022-08-20T11:31:27.432Z,53.75
2022-08-20T11:32:22.397Z,53.45
2022-08-20T11:33:23.163Z,53.66
2022-08-20T11:34:22.377Z,53.56
2022-08-20T11:35:42.266Z,53.43
2022-08-20T11:36:23.354Z,53.36
2022-08-20T11:37:22.347Z,53.75
2022-08-20T11:38:22.340Z,53.63
2022-08-20T11:39:22.321Z,53.45
2022-08-20T11:40:22.382Z,54.05
2022-08-20T11:41:22.303Z,53.26
2022-08-20T11:42:27.322Z,54.38
2022-08-20T11:43:22.294Z,54.35
2022-08-20T11:44:22.266Z,54.35
2022-08-20T11:45:22.256Z,53.73
2022-08-20T11:46:26.556Z,52.54
2022-08-20T11:47:23.240Z,52.73
2022-08-20T11:48:22.233Z,51.52
2022-08-20T11:49:22.209Z,51.92
2022-08-20T11:50:22.197Z,52.12
2022-08-20T11:51:22.186Z,52.02
2022-08-20T11:52:22.185Z,52.09
2022-08-20T11:53:27.191Z,51.79
2022-08-20T11:54:22.155Z,51.10
2022-08-20T11:55:22.143Z,50.48
2022-08-20T11:56:23.131Z,51.20
2022-08-20T11:57:22.140Z,50.48
2022-08-20T11:58:22.108Z,51.77
2022-08-20T11:59:22.100Z,51.65
2022-08-20T12:00:22.088Z,50.26
2022-08-20T12:01:23.078Z,49.84
2022-08-20T12:02:22.161Z,48.95
2022-08-20T12:03:22.107Z,49.32
2022-08-20T12:04:27.065Z,48.61
2022-08-20T12:05:22.032Z,48.39
2022-08-20T12:06:22.024Z,47.23
2022-08-20T12:07:22.016Z,45.39
2022-08-20T12:08:26.711Z,43.97
2022-08-20T12:09:24.853Z,43.04
2022-08-20T12:10:21.980Z,42.58
2022-08-20T12:11:21.967Z,41.27
2022-08-20T12:12:21.961Z,40.00
2022-08-20T12:13:30.831Z,40.51
2022-08-20T12:14:22.933Z,41.94
2022-08-20T12:15:26.969Z,42.91
2022-08-20T12:16:21.933Z,43.77
2022-08-20T12:17:21.927Z,42.75
2022-08-20T12:18:21.914Z,42.65
2022-08-20T12:19:22.890Z,42.96
2022-08-20T12:20:21.868Z,43.48
2022-08-20T12:21:21.858Z,43.99
2022-08-20T12:22:24.392Z,43.82
2022-08-20T12:23:21.851Z,44.62
2022-08-20T12:24:21.828Z,45.81
2022-08-20T12:25:21.814Z,43.30
2022-08-20T12:26:21.810Z,43.84
2022-08-20T12:27:21.793Z,44.84
2022-08-20T12:28:26.813Z,45.57
2022-08-20T12:29:21.796Z,45.50
2022-08-20T12:30:21.784Z,45.62
2022-08-20T12:31:21.749Z,45.62
2022-08-20T12:32:21.740Z,44.91
2022-08-20T12:33:21.741Z,43.46
2022-08-20T12:34:21.722Z,42.32
2022-08-20T12:35:21.706Z,41.00
2022-08-20T12:36:21.695Z,39.78
2022-08-20T12:37:21.684Z,39.62
2022-08-20T12:38:21.692Z,38.41
2022-08-20T12:39:21.666Z,38.10
2022-08-20T12:40:27.421Z,37.59
2022-08-20T12:41:27.660Z,36.40
2022-08-20T12:42:21.653Z,35.48
2022-08-20T12:43:24.814Z,35.74
2022-08-20T12:44:21.610Z,33.61
2022-08-20T12:45:21.598Z,32.82
2022-08-20T12:46:21.590Z,31.38
2022-08-20T12:47:21.606Z,31.56
2022-08-20T12:48:21.579Z,30.88
2022-08-20T12:49:21.557Z,31.88
2022-08-20T12:50:21.545Z,32.60
2022-08-20T12:51:21.533Z,32.82
2022-08-20T12:52:21.523Z,33.05
2022-08-20T12:53:21.529Z,33.59
2022-08-20T12:54:26.524Z,35.69
2022-08-20T12:55:21.502Z,35.39
2022-08-20T12:56:21.502Z,35.11
2022-08-20T12:57:21.469Z,35.21
2022-08-20T12:58:21.460Z,35.72
2022-08-20T12:59:25.715Z,36.02
2022-08-20T13:00:21.439Z,36.33
2022-08-20T13:01:21.464Z,36.57
2022-08-20T13:02:21.416Z,36.58
2022-08-20T13:03:21.410Z,36.68
2022-08-20T13:04:21.417Z,36.09
2022-08-20T13:05:26.408Z,36.00
2022-08-20T13:06:21.401Z,36.98
2022-08-20T13:07:21.383Z,38.35
2022-08-20T13:08:21.351Z,37.78
2022-08-20T13:09:21.350Z,38.96
2022-08-20T13:10:21.332Z,38.75
2022-08-20T13:11:21.318Z,38.87
2022-08-20T13:12:21.317Z,39.36
2022-08-20T13:13:21.326Z,40.05
2022-08-20T13:14:21.298Z,39.58
2022-08-20T13:15:21.272Z,40.27
2022-08-20T13:16:21.273Z,39.87
2022-08-20T13:17:38.883Z,40.05
2022-08-20T13:18:27.262Z,38.89
2022-08-20T13:19:21.261Z,39.18
2022-08-20T13:20:21.242Z,39.78
2022-08-20T13:21:24.020Z,39.48
2022-08-20T13:22:21.198Z,40.07
2022-08-20T13:23:21.194Z,39.78
2022-08-20T13:24:21.191Z,40.27
2022-08-20T13:25:21.162Z,40.27
2022-08-20T13:26:21.157Z,39.48
2022-08-20T13:27:21.142Z,39.09
2022-08-20T13:28:21.142Z,40.58
2022-08-20T13:29:21.129Z,41.06
2022-08-20T13:30:21.146Z,40.76
2022-08-20T13:31:26.142Z,40.56
2022-08-20T13:32:21.109Z,40.48
2022-08-20T13:33:21.097Z,40.27
2022-08-20T13:34:21.076Z,40.96
2022-08-20T13:35:21.056Z,39.18
2022-08-20T13:36:21.043Z,38.69
2022-08-20T13:37:25.057Z,37.41
2022-08-20T13:38:21.022Z,39.28
2022-08-20T13:39:21.024Z,37.51
2022-08-20T13:40:21.054Z,35.73
2022-08-20T13:41:20.987Z,35.93
2022-08-20T13:42:20.977Z,35.63
2022-08-20T13:43:20.964Z,36.71
2022-08-20T13:44:31.329Z,36.61
2022-08-20T13:45:21.940Z,35.43
2022-08-20T13:46:20.932Z,35.93
2022-08-20T13:47:20.919Z,34.53
2022-08-20T13:48:20.910Z,36.00
2022-08-20T13:49:20.919Z,34.13
2022-08-20T13:50:20.891Z,33.34
2022-08-20T13:51:21.679Z,33.72
2022-08-20T13:52:20.904Z,31.96
2022-08-20T13:53:20.855Z,33.25
2022-08-20T13:54:20.859Z,33.03
2022-08-20T13:55:25.854Z,33.03
2022-08-20T13:56:20.823Z,34.33
2022-08-20T13:57:20.813Z,31.96
2022-08-20T13:58:20.804Z,32.84
2022-08-20T13:59:20.797Z,32.44
2022-08-20T14:00:20.780Z,31.96
2022-08-20T14:01:20.808Z,31.35
2022-08-20T14:02:20.761Z,31.35
2022-08-20T14:03:25.313Z,30.38
2022-08-20T14:04:21.743Z,30.09
2022-08-20T14:05:20.722Z,30.47
2022-08-20T14:06:25.734Z,31.17
2022-08-20T14:07:20.698Z,30.98
2022-08-20T14:08:20.690Z,32.56
2022-08-20T14:09:20.695Z,30.48
2022-08-20T14:10:20.699Z,31.27
2022-08-20T14:11:20.663Z,31.76
2022-08-20T14:12:20.647Z,32.56
2022-08-20T14:13:20.677Z,30.29
2022-08-20T14:14:20.653Z,30.09
2022-08-20T14:15:20.617Z,29.99
2022-08-20T14:16:25.218Z,30.19
2022-08-20T14:17:26.613Z,29.58
2022-08-20T14:18:20.579Z,30.17
2022-08-20T14:19:20.582Z,30.29
2022-08-20T14:20:20.562Z,31.16
2022-08-20T14:21:20.546Z,28.79
2022-08-20T14:22:20.535Z,30.17
2022-08-20T14:23:20.530Z,28.91
2022-08-20T14:24:20.524Z,29.78
2022-08-20T14:25:20.502Z,29.78
2022-08-20T14:26:20.502Z,28.99
2022-08-20T14:27:20.483Z,28.99
2022-08-20T14:28:25.491Z,29.38
2022-08-20T14:29:20.470Z,29.38
2022-08-20T14:30:20.448Z,29.68
2022-08-20T14:31:20.439Z,29.58
2022-08-20T14:32:20.428Z,29.19
2022-08-20T14:33:20.415Z,28.89
2022-08-20T14:34:20.413Z,29.19
2022-08-20T14:35:20.469Z,29.97
2022-08-20T14:36:20.386Z,30.27
2022-08-20T14:37:20.401Z,30.17
2022-08-20T14:38:20.359Z,29.09
2022-08-20T14:39:25.395Z,29.50
2022-08-20T14:40:20.505Z,29.50
2022-08-20T14:41:20.329Z,29.99
2022-08-20T14:42:20.315Z,29.50
2022-08-20T14:43:20.335Z,30.09
2022-08-20T14:44:20.336Z,29.79
2022-08-20T14:45:20.286Z,30.38
2022-08-20T14:46:20.274Z,30.19
2022-08-20T14:47:20.258Z,30.07
2022-08-20T14:48:20.247Z,32.14
2022-08-20T14:49:20.245Z,30.37
2022-08-20T14:50:25.255Z,30.07
2022-08-20T14:51:20.215Z,29.88
2022-08-20T14:52:20.203Z,30.07
2022-08-20T14:53:20.201Z,29.48
2022-08-20T14:54:20.203Z,30.27
2022-08-20T14:55:20.190Z,29.58
2022-08-20T14:56:20.159Z,29.97
2022-08-20T14:57:20.149Z,29.58
2022-08-20T14:58:20.138Z,30.35
2022-08-20T14:59:20.136Z,30.27
2022-08-20T15:00:20.121Z,29.66
2022-08-20T15:01:25.296Z,30.35
2022-08-20T15:02:20.093Z,30.17
2022-08-20T15:03:20.090Z,29.78
2022-08-20T15:04:20.082Z,29.57
2022-08-20T15:05:20.065Z,29.78
2022-08-20T15:06:21.992Z,29.47
2022-08-20T15:07:20.037Z,31.73
2022-08-20T15:08:20.049Z,29.48
2022-08-20T15:09:20.029Z,32.13
2022-08-20T15:10:20.047Z,29.17
2022-08-20T15:11:20.100Z,30.07
2022-08-20T15:12:25.041Z,29.76
2022-08-20T15:13:19.973Z,29.37
2022-08-20T15:14:19.980Z,28.97
2022-08-20T15:15:19.950Z,31.85
2022-08-20T15:16:19.947Z,30.26
2022-08-20T15:17:19.933Z,29.96
2022-08-20T15:18:19.919Z,30.35
2022-08-20T15:19:19.905Z,30.07
2022-08-20T15:20:20.925Z,31.63
2022-08-20T15:21:21.911Z,31.45
2022-08-20T15:22:19.879Z,29.86
2022-08-20T15:23:24.881Z,29.57
2022-08-20T15:24:19.853Z,29.88
2022-08-20T15:25:19.856Z,29.17
2022-08-20T15:26:19.833Z,28.58
2022-08-20T15:27:22.593Z,29.57
2022-08-20T15:28:19.807Z,29.47
2022-08-20T15:29:22.955Z,30.86
2022-08-20T15:30:19.794Z,29.78
2022-08-20T15:31:19.778Z,28.00
2022-08-20T15:32:20.385Z,30.27
2022-08-20T15:33:19.781Z,28.79
2022-08-20T15:34:24.762Z,28.79
2022-08-20T15:35:19.740Z,29.88
2022-08-20T15:36:19.720Z,28.89
2022-08-20T15:37:19.706Z,28.00
2022-08-20T15:38:19.698Z,28.89
2022-08-20T15:39:19.736Z,28.79
2022-08-20T15:40:20.187Z,28.59
2022-08-20T15:41:19.751Z,30.37
2022-08-20T15:42:19.652Z,28.79
2022-08-20T15:43:19.641Z,28.30
2022-08-20T15:44:19.633Z,29.38
2022-08-20T15:45:24.687Z,28.30
2022-08-20T15:46:19.608Z,28.69
2022-08-20T15:47:19.595Z,28.79
2022-08-20T15:48:19.586Z,28.99
2022-08-20T15:49:19.590Z,28.79
2022-08-20T15:50:19.566Z,30.57
2022-08-20T15:51:19.586Z,29.88
2022-08-20T15:52:19.550Z,30.37
2022-08-20T15:53:19.530Z,29.58
2022-08-20T15:54:19.531Z,30.27
2022-08-20T15:55:19.508Z,30.27
2022-08-20T15:56:24.522Z,28.20
2022-08-20T15:57:19.484Z,28.30
2022-08-20T15:58:19.477Z,27.31
2022-08-20T15:59:19.477Z,27.91
2022-08-20T16:00:19.457Z,27.91
2022-08-20T16:01:24.441Z,29.88
2022-08-20T16:02:25.075Z,28.99
2022-08-20T16:03:20.422Z,32.44
2022-08-20T16:04:19.409Z,28.30
2022-08-20T16:05:19.407Z,26.23
2022-08-20T16:06:19.387Z,27.51
2022-08-20T16:07:24.399Z,25.93
2022-08-20T16:08:19.365Z,26.32
2022-08-20T16:09:19.351Z,25.44
2022-08-20T16:10:19.353Z,26.62
2022-08-20T16:11:19.332Z,27.31
2022-08-20T16:12:19.328Z,26.13
2022-08-20T16:13:19.310Z,32.34
2022-08-20T16:14:19.297Z,25.35
2022-08-20T16:15:19.296Z,30.48
2022-08-20T16:16:19.282Z,27.61
2022-08-20T16:17:19.264Z,25.54
2022-08-20T16:18:24.276Z,31.76
2022-08-20T16:19:19.241Z,25.55
2022-08-20T16:20:19.244Z,26.83
2022-08-20T16:21:19.221Z,30.48
2022-08-20T16:22:19.209Z,26.14
2022-08-20T16:23:19.199Z,26.83
2022-08-20T16:24:19.192Z,27.33
2022-08-20T16:25:19.198Z,26.43
2022-08-20T16:26:19.165Z,28.91
2022-08-20T16:27:19.153Z,25.65
2022-08-20T16:28:19.145Z,25.55
2022-08-20T16:29:24.185Z,25.55
2022-08-20T16:30:21.415Z,28.91
2022-08-20T16:31:19.109Z,26.34
2022-08-20T16:32:19.103Z,26.14
2022-08-20T16:33:19.088Z,26.14
2022-08-20T16:34:33.827Z,25.45
2022-08-20T16:35:20.077Z,25.45
2022-08-20T16:36:19.064Z,26.65
2022-08-20T16:37:19.048Z,25.86
2022-08-20T16:38:20.889Z,25.35
2022-08-20T16:39:19.024Z,25.27
2022-08-20T16:40:24.108Z,24.67
2022-08-20T16:41:18.999Z,24.87
2022-08-20T16:42:18.993Z,25.27
2022-08-20T16:43:18.977Z,24.86
2022-08-20T16:44:18.967Z,26.55
2022-08-20T16:45:18.969Z,25.07
2022-08-20T16:46:18.947Z,27.14
2022-08-20T16:47:18.934Z,25.16
2022-08-20T16:48:18.922Z,29.80
2022-08-20T16:49:18.911Z,25.96
2022-08-20T16:50:18.913Z,29.02
2022-08-20T16:51:23.923Z,25.56
2022-08-20T16:52:18.880Z,26.55